Time;durP1;ratioP1;P1;durP2;ratioP2;P2;SDS_P1;SDS_P2;PMS_P1;PMS_P2;Temp;Humidity;BMP_temperature;BMP_pressure;BME280_temperature;BME280_humidity;BME280_pressure;Samples;Min_cycle;Max_cycle;Signal;HPM_P1;HPM_P2
2023/01/02 00:01:34;;;;;;;0.00;0.00;;;14.40;99.90;;;;;;5015100;28;20285;-49
2023/01/02 00:04:01;;;;;;;0.00;0.00;;;14.40;99.90;;;;;;5014143;28;20625;-50
2023/01/02 00:06:28;;;;;;;0.00;0.00;;;14.40;99.90;;;;;;5007040;28;20670;-49
2023/01/02 00:08:56;;;;;;;0.10;0.10;;;14.40;99.90;;;;;;5014890;28;20709;-49
2023/01/02 00:11:23;;;;;;;2.37;0.00;;;14.40;99.90;;;;;;5018685;28;20234;-49
2023/01/02 00:13:50;;;;;;;0.20;0.00;;;14.50;99.90;;;;;;5017463;28;20221;-50
2023/01/02 00:16:17;;;;;;;0.00;0.00;;;14.50;99.90;;;;;;5014342;28;20257;-48
2023/01/02 00:18:44;;;;;;;0.10;0.10;;;14.50;99.90;;;;;;5015598;28;20241;-49
2023/01/02 00:21:11;;;;;;;0.50;0.00;;;14.40;99.90;;;;;;5018511;28;20219;-50
2023/01/02 00:23:38;;;;;;;1.13;0.00;;;14.50;99.90;;;;;;5018986;28;20615;-49
2023/01/02 00:26:07;;;;;;;0.00;0.00;;;14.50;99.90;;;;;;5015223;28;20288;-50
2023/01/02 00:28:35;;;;;;;1.33;0.00;;;14.60;99.90;;;;;;5014513;28;20276;-49
2023/01/02 00:31:06;;;;;;;0.00;0.00;;;14.70;99.90;;;;;;5031387;28;20637;-50
2023/01/02 00:33:33;;;;;;;0.00;0.00;;;14.70;99.90;;;;;;5039883;28;20277;-49
2023/01/02 00:36:04;;;;;;;0.10;0.00;;;14.80;99.90;;;;;;5026198;28;20195;-49
2023/01/02 00:38:32;;;;;;;0.03;0.03;;;14.70;99.90;;;;;;5029596;28;20202;-49
2023/01/02 00:40:59;;;;;;;0.13;0.00;;;14.60;99.90;;;;;;5045210;28;20200;-50
2023/01/02 00:43:27;;;;;;;0.73;0.10;;;14.70;99.90;;;;;;5037105;28;20265;-49
2023/01/02 00:45:55;;;;;;;0.00;0.00;;;14.70;99.90;;;;;;5040047;28;20666;-50
2023/01/02 00:48:22;;;;;;;0.00;0.00;;;14.60;99.90;;;;;;5032678;28;20207;-49
2023/01/02 00:50:50;;;;;;;0.20;0.20;;;14.60;99.90;;;;;;5044820;28;20253;-50
2023/01/02 00:53:17;;;;;;;0.00;0.00;;;14.60;99.90;;;;;;5050462;28;20716;-50
2023/01/02 00:55:45;;;;;;;0.00;0.00;;;14.50;99.90;;;;;;5035597;28;20285;-50
2023/01/02 00:58:12;;;;;;;0.00;0.00;;;14.50;99.90;;;;;;5038948;28;20727;-49
2023/01/02 01:00:41;;;;;;;0.00;0.00;;;14.50;99.90;;;;;;5041333;28;20724;-50
2023/01/02 01:03:08;;;;;;;0.00;0.00;;;14.50;99.90;;;;;;5047563;28;20198;-49
2023/01/02 01:05:38;;;;;;;0.00;0.00;;;14.50;99.90;;;;;;5032402;28;20203;-49
2023/01/02 01:08:05;;;;;;;0.03;0.00;;;14.30;99.90;;;;;;5033055;28;20203;-49
2023/01/02 01:10:32;;;;;;;0.00;0.00;;;14.30;99.90;;;;;;5032274;28;20670;-49
2023/01/02 01:12:59;;;;;;;0.00;0.00;;;14.40;99.90;;;;;;5044643;28;20291;-50
2023/01/02 01:15:26;;;;;;;0.10;0.10;;;14.50;99.90;;;;;;5036283;28;20203;-50
2023/01/02 01:17:54;;;;;;;0.00;0.00;;;14.50;99.90;;;;;;5036624;28;20194;-49
2023/01/02 01:20:21;;;;;;;0.03;0.00;;;14.60;99.90;;;;;;5042703;28;20198;-49
2023/01/02 01:22:48;;;;;;;0.00;0.00;;;14.60;99.90;;;;;;5041375;28;20786;-50
2023/01/02 01:25:15;;;;;;;0.00;0.00;;;14.60;99.90;;;;;;5041219;28;20276;-49
2023/01/02 01:27:42;;;;;;;0.00;0.00;;;14.60;99.90;;;;;;5034431;28;20206;-49
2023/01/02 01:30:10;;;;;;;0.83;0.00;;;14.70;99.90;;;;;;5037496;28;20206;-49
2023/01/02 01:32:37;;;;;;;0.00;0.00;;;14.70;99.90;;;;;;5020091;28;20277;-50
2023/01/02 01:35:06;;;;;;;0.10;0.00;;;14.70;99.90;;;;;;5017938;28;20219;-49
2023/01/02 01:37:33;;;;;;;0.20;0.00;;;14.70;99.90;;;;;;5011941;28;20273;-49
2023/01/02 01:40:00;;;;;;;0.00;0.00;;;14.70;99.90;;;;;;5012282;28;20432;-50
2023/01/02 01:42:32;;;;;;;0.10;0.00;;;14.70;99.90;;;;;;5012860;28;20647;-50
2023/01/02 01:44:59;;;;;;;0.00;0.00;;;14.60;99.90;;;;;;5005135;28;20222;-50
2023/01/02 01:47:35;;;;;;;0.10;0.00;;;14.60;99.90;;;;;;5012773;28;20261;-50
2023/01/02 01:50:08;;;;;;;1.20;0.03;;;14.60;99.90;;;;;;5012595;28;20246;-50
2023/01/02 01:52:41;;;;;;;0.33;0.00;;;14.60;99.90;;;;;;5012538;28;20223;-50
2023/01/02 01:55:13;;;;;;;0.30;0.03;;;14.60;99.90;;;;;;5012369;28;20215;-50
2023/01/02 01:57:44;;;;;;;0.30;0.10;;;14.60;99.90;;;;;;5012355;28;20206;-49
2023/01/02 02:00:12;;;;;;;0.97;0.10;;;14.60;99.90;;;;;;5006531;28;20257;-49
2023/01/02 02:02:44;;;;;;;0.07;0.07;;;14.60;99.90;;;;;;5013662;28;20223;-50
2023/01/02 02:05:17;;;;;;;0.00;0.00;;;14.60;99.90;;;;;;5012361;28;20203;-50
2023/01/02 02:07:50;;;;;;;0.33;0.33;;;14.60;99.90;;;;;;5013200;28;20199;-49
2023/01/02 02:10:18;;;;;;;1.13;0.00;;;14.60;99.90;;;;;;5010070;28;20273;-50
2023/01/02 02:12:45;;;;;;;0.00;0.00;;;14.60;99.90;;;;;;5012135;28;20222;-50
2023/01/02 02:15:20;;;;;;;0.57;0.10;;;14.80;99.90;;;;;;5012196;28;20227;-50
2023/01/02 02:17:57;;;;;;;0.00;0.00;;;14.80;99.90;;;;;;5012332;28;20252;-49
2023/01/02 02:20:33;;;;;;;0.00;0.00;;;14.80;99.90;;;;;;5012232;28;20203;-50
2023/01/02 02:23:43;;;;;;;0.00;0.00;;;14.80;99.90;;;;;;5010606;28;20223;-50
2023/01/02 02:26:33;;;;;;;0.30;0.03;;;14.80;99.90;;;;;;5012129;28;20195;-50
2023/01/02 02:29:33;;;;;;;0.30;0.10;;;14.70;99.90;;;;;;5003858;28;20265;-50
2023/01/02 02:32:15;;;;;;;1.47;0.00;;;14.70;99.90;;;;;;5007293;28;20230;-50
2023/01/02 02:34:51;;;;;;;0.10;0.00;;;14.60;99.90;;;;;;5010838;28;20227;-50
2023/01/02 02:37:24;;;;;;;0.00;0.00;;;14.60;99.90;;;;;;5010732;28;20203;-50
2023/01/02 02:40:08;;;;;;;2.20;1.37;;;14.60;99.90;;;;;;5016607;28;20207;-49
2023/01/02 02:42:47;;;;;;;0.00;0.00;;;14.50;99.90;;;;;;5008493;28;20947;-49
2023/01/02 02:45:22;;;;;;;1.03;0.00;;;14.50;99.90;;;;;;5009070;28;20207;-50
2023/01/02 02:47:57;;;;;;;0.00;0.00;;;14.50;99.90;;;;;;5019034;28;20254;-51
2023/01/02 02:50:32;;;;;;;0.00;0.00;;;14.40;99.90;;;;;;5022154;28;20210;-51
2023/01/02 02:53:03;;;;;;;0.10;0.00;;;14.40;99.90;;;;;;5010972;28;20226;-51
2023/01/02 02:55:37;;;;;;;0.00;0.00;;;14.40;99.90;;;;;;5011430;28;20269;-51
2023/01/02 02:58:05;;;;;;;0.00;0.00;;;14.40;99.90;;;;;;5016123;28;20626;-51
2023/01/02 03:00:32;;;;;;;0.10;0.03;;;14.40;99.90;;;;;;5015195;28;20637;-50
2023/01/02 03:03:01;;;;;;;0.13;0.10;;;14.40;99.90;;;;;;5003775;28;20219;-50
2023/01/02 03:05:33;;;;;;;0.10;0.10;;;14.40;99.90;;;;;;5015288;28;20207;-50
2023/01/02 03:08:09;;;;;;;0.77;0.10;;;14.40;99.90;;;;;;5011265;28;20266;-50
2023/01/02 03:10:45;;;;;;;0.40;0.10;;;14.40;99.90;;;;;;5011217;28;20194;-50
2023/01/02 03:13:18;;;;;;;0.17;0.00;;;14.40;99.90;;;;;;5010483;28;20268;-50
2023/01/02 03:15:57;;;;;;;0.00;0.00;;;14.40;99.90;;;;;;5011125;28;20706;-50
2023/01/02 03:18:31;;;;;;;0.20;0.20;;;14.20;99.90;;;;;;5011257;28;20211;-49
2023/01/02 03:21:03;;;;;;;3.60;1.63;;;14.20;99.90;;;;;;5011213;28;20276;-49
2023/01/02 03:23:33;;;;;;;0.30;0.30;;;14.20;99.90;;;;;;5010351;28;20261;-49
2023/01/02 03:26:01;;;;;;;0.10;0.10;;;14.20;99.90;;;;;;5012784;28;20203;-50
2023/01/02 03:28:29;;;;;;;0.93;0.10;;;14.30;99.90;;;;;;5012876;28;20203;-49
2023/01/02 03:31:00;;;;;;;0.00;0.00;;;14.20;99.90;;;;;;4972238;28;1244888;-49
2023/01/02 03:33:32;;;;;;;0.23;0.00;;;14.30;99.90;;;;;;5051667;28;20627;-50
2023/01/02 03:36:02;;;;;;;0.40;0.00;;;14.30;99.90;;;;;;5036434;28;20218;-50
2023/01/02 03:38:35;;;;;;;4.07;3.67;;;14.30;99.90;;;;;;5031546;28;20677;-50
2023/01/02 03:41:07;;;;;;;7.97;6.63;;;14.00;99.90;;;;;;5030722;28;20279;-50
2023/01/02 03:43:37;;;;;;;6.10;5.40;;;13.10;99.90;;;;;;5030613;28;20206;-50
2023/01/02 03:46:10;;;;;;;6.47;5.00;;;12.20;99.90;;;;;;5035709;28;20267;-50
2023/01/02 03:48:43;;;;;;;5.17;4.70;;;11.60;99.90;;;;;;5035002;28;20205;-49
2023/01/02 03:51:10;;;;;;;6.07;5.27;;;11.40;99.90;;;;;;5035209;28;20264;-49
2023/01/02 03:53:39;;;;;;;5.43;4.93;;;11.00;99.90;;;;;;5035263;28;20783;-50
2023/01/02 03:56:14;;;;;;;5.73;4.97;;;10.90;99.90;;;;;;5034995;28;20260;-49
2023/01/02 03:58:48;;;;;;;4.47;4.17;;;10.80;99.90;;;;;;5030519;28;20217;-50
2023/01/02 04:01:23;;;;;;;6.83;5.50;;;10.70;99.90;;;;;;5035211;28;20234;-49
2023/01/02 04:03:57;;;;;;;6.13;4.83;;;10.30;99.90;;;;;;5035267;28;20583;-50
2023/01/02 04:06:31;;;;;;;6.40;5.77;;;10.20;99.90;;;;;;5034911;28;20196;-50
2023/01/02 04:09:04;;;;;;;5.67;5.17;;;10.00;99.90;;;;;;5035115;28;20257;-50
2023/01/02 04:11:33;;;;;;;6.20;5.60;;;9.70;99.90;;;;;;5035154;28;20278;-50
2023/01/02 04:14:07;;;;;;;6.13;5.70;;;9.60;99.90;;;;;;5034780;28;20238;-50
2023/01/02 04:16:37;;;;;;;6.17;5.47;;;9.50;99.90;;;;;;5034111;28;20259;-49
2023/01/02 04:19:13;;;;;;;7.13;6.40;;;9.40;99.90;;;;;;5046365;28;20325;-50
2023/01/02 04:21:41;;;;;;;7.10;6.20;;;9.20;99.90;;;;;;5037183;28;20294;-50
2023/01/02 04:24:12;;;;;;;7.93;7.20;;;9.00;99.90;;;;;;5034423;28;20683;-50
2023/01/02 04:26:46;;;;;;;6.97;5.93;;;9.00;99.90;;;;;;5034577;28;20679;-50
2023/01/02 04:29:13;;;;;;;7.80;7.00;;;9.00;99.90;;;;;;5033665;28;20204;-49
2023/01/02 04:31:47;;;;;;;10.10;6.60;;;9.00;99.90;;;;;;5046870;28;20229;-51
2023/01/02 04:34:22;;;;;;;6.77;6.17;;;8.90;99.90;;;;;;5035920;28;20201;-51
2023/01/02 04:36:49;;;;;;;7.87;6.83;;;8.80;99.90;;;;;;5043355;28;20739;-51
2023/01/02 04:39:18;;;;;;;6.73;6.07;;;8.50;99.90;;;;;;5034304;28;20213;-51
2023/01/02 04:41:45;;;;;;;10.37;7.67;;;8.30;99.90;;;;;;5055605;23;20223;-49
2023/01/02 04:44:12;;;;;;;10.10;7.13;;;8.30;99.90;;;;;;5034443;28;20251;-48
2023/01/02 04:46:39;;;;;;;8.07;6.77;;;8.30;99.90;;;;;;5034412;28;20230;-49
2023/01/02 04:49:06;;;;;;;7.80;6.63;;;8.40;99.90;;;;;;5034550;28;20208;-48
2023/01/02 04:51:34;;;;;;;9.17;6.63;;;8.40;99.90;;;;;;5024760;28;20293;-49
2023/01/02 04:54:01;;;;;;;6.33;5.73;;;8.40;99.90;;;;;;5008185;28;20251;-49
2023/01/02 04:56:28;;;;;;;7.17;5.97;;;8.40;99.90;;;;;;5010637;28;20220;-48
2023/01/02 04:58:55;;;;;;;7.33;6.23;;;8.40;99.90;;;;;;5012579;28;20205;-49
2023/01/02 05:01:22;;;;;;;6.80;6.10;;;8.40;99.90;;;;;;5006474;28;20225;-48
2023/01/02 05:03:51;;;;;;;7.63;6.37;;;8.30;99.90;;;;;;5012511;28;20253;-49
2023/01/02 05:06:18;;;;;;;9.63;7.27;;;8.30;99.90;;;;;;5014322;28;20623;-49
2023/01/02 05:08:46;;;;;;;8.43;7.63;;;8.30;99.90;;;;;;5014231;28;20263;-48
2023/01/02 05:11:16;;;;;;;8.77;7.43;;;8.30;99.90;;;;;;5011015;28;20268;-49
2023/01/02 05:13:44;;;;;;;11.03;7.53;;;8.20;99.90;;;;;;5013229;28;20268;-48
2023/01/02 05:16:11;;;;;;;9.03;7.60;;;8.20;99.90;;;;;;5013968;28;20267;-50
2023/01/02 05:18:38;;;;;;;7.50;6.43;;;8.10;99.90;;;;;;5014077;28;20623;-48
2023/01/02 05:23:47;;;;;;;8.47;7.47;;;8.20;99.90;;;;;;5008489;28;20298;-49
2023/01/02 05:23:57;;;;;;;8.10;6.37;;;8.10;99.90;;;;;;5012767;28;20698;-49
2023/01/02 05:26:24;;;;;;;7.30;6.27;;;8.00;99.90;;;;;;5013924;28;20205;-48
2023/01/02 05:28:52;;;;;;;8.13;6.93;;;8.00;99.90;;;;;;5013798;28;20255;-48
2023/01/02 05:31:20;;;;;;;9.90;6.57;;;7.90;99.90;;;;;;5006694;28;20236;-49
2023/01/02 05:33:51;;;;;;;5.97;5.20;;;7.80;99.90;;;;;;5011651;28;20201;-49
2023/01/02 05:36:18;;;;;;;2.07;1.87;;;7.80;99.90;;;;;;4999177;28;20328;-48
2023/01/02 05:38:45;;;;;;;1.23;1.13;;;8.10;99.90;;;;;;4996869;28;20205;-48
2023/01/02 05:41:13;;;;;;;3.33;3.00;;;8.40;99.90;;;;;;5011855;28;20712;-49
2023/01/02 05:43:41;;;;;;;0.70;0.70;;;8.60;99.90;;;;;;5013459;28;20596;-48
2023/01/02 05:46:10;;;;;;;0.90;0.80;;;8.90;99.90;;;;;;5013594;28;20735;-48
2023/01/02 05:48:37;;;;;;;0.83;0.47;;;9.20;99.90;;;;;;5013550;28;20206;-49
2023/01/02 05:51:06;;;;;;;1.23;0.20;;;9.80;99.90;;;;;;5016508;28;20216;-50
2023/01/02 05:53:33;;;;;;;0.20;0.13;;;10.20;99.90;;;;;;5016409;28;20205;-48
2023/01/02 05:56:08;;;;;;;0.20;0.10;;;10.60;99.90;;;;;;5013574;28;20228;-48
2023/01/02 05:58:38;;;;;;;0.87;0.07;;;11.30;99.90;;;;;;5005590;28;20213;-49
2023/01/02 06:01:07;;;;;;;0.20;0.00;;;11.60;99.90;;;;;;4999571;28;20233;-49
2023/01/02 06:03:34;;;;;;;0.87;0.00;;;11.90;99.90;;;;;;5004867;28;20624;-49
2023/01/02 06:06:06;;;;;;;1.93;0.00;;;12.00;99.90;;;;;;5005201;28;20657;-48
2023/01/02 06:08:33;;;;;;;5.90;5.37;;;12.10;99.90;;;;;;5013383;28;20744;-49
2023/01/02 06:11:01;;;;;;;6.03;5.43;;;12.00;99.90;;;;;;5008253;28;20224;-49
2023/01/02 06:13:28;;;;;;;6.87;6.27;;;11.00;99.90;;;;;;5009126;28;20669;-48
2023/01/02 06:15:57;;;;;;;9.93;6.70;;;10.70;99.90;;;;;;5012381;28;20233;-48
2023/01/02 06:18:25;;;;;;;10.73;9.63;;;10.30;99.90;;;;;;5012904;28;20204;-48
2023/01/02 06:20:52;;;;;;;9.27;7.67;;;9.90;99.90;;;;;;5009338;28;20224;-48
2023/01/02 06:23:19;;;;;;;11.83;8.23;;;9.60;99.90;;;;;;5007741;28;20205;-48
2023/01/02 06:25:46;;;;;;;10.20;7.83;;;9.30;99.90;;;;;;5012843;28;20271;-48
2023/01/02 06:28:13;;;;;;;10.67;8.73;;;9.00;99.90;;;;;;5012849;28;20271;-48
2023/01/02 06:30:40;;;;;;;8.33;7.40;;;8.70;99.90;;;;;;5010449;28;20229;-48
2023/01/02 06:33:08;;;;;;;9.10;7.43;;;8.40;99.90;;;;;;5005249;28;20199;-50
2023/01/02 06:35:35;;;;;;;6.90;6.20;;;8.20;99.90;;;;;;5012781;28;20305;-50
2023/01/02 06:38:02;;;;;;;6.00;5.40;;;8.10;99.90;;;;;;5012811;28;20211;-48
2023/01/02 06:40:29;;;;;;;7.33;6.60;;;8.00;99.90;;;;;;5011624;28;20203;-48
2023/01/02 06:42:56;;;;;;;8.07;6.40;;;8.00;99.90;;;;;;5011743;28;20259;-48
2023/01/02 06:45:23;;;;;;;7.63;6.60;;;7.80;99.90;;;;;;5012333;28;20259;-48
2023/01/02 06:47:56;;;;;;;6.83;6.13;;;7.70;99.90;;;;;;5012726;28;20256;-48
2023/01/02 06:50:25;;;;;;;8.10;5.40;;;7.60;99.90;;;;;;5011030;28;20625;-50
2023/01/02 06:52:52;;;;;;;12.67;7.50;;;7.60;99.90;;;;;;5004179;28;20249;-48
2023/01/02 06:55:19;;;;;;;7.20;5.67;;;7.60;99.90;;;;;;5011810;28;20269;-48
2023/01/02 06:57:46;;;;;;;11.20;8.40;;;7.60;99.90;;;;;;5009528;28;20713;-49
2023/01/02 07:00:14;;;;;;;11.47;7.37;;;7.50;99.90;;;;;;4995073;28;20208;-49
2023/01/02 07:02:41;;;;;;;10.53;7.10;;;7.40;99.90;;;;;;5006755;28;20247;-49
2023/01/02 07:05:09;;;;;;;8.27;6.67;;;7.40;99.90;;;;;;5012285;28;20291;-49
2023/01/02 07:07:38;;;;;;;9.73;8.00;;;7.40;99.90;;;;;;5011111;28;20598;-48
2023/01/02 07:10:05;;;;;;;9.10;6.73;;;7.40;99.90;;;;;;5017739;28;20612;-48
2023/01/02 07:12:35;;;;;;;7.97;6.47;;;7.30;99.90;;;;;;5011895;28;20287;-48
2023/01/02 07:21:46;;;;;;;5.87;5.27;;;7.30;99.90;;;;;;5009265;28;20292;-48
2023/01/02 07:24:15;;;;;;;6.37;4.67;;;7.20;99.90;;;;;;5011828;28;20259;-48
2023/01/02 07:26:42;;;;;;;6.87;4.90;;;7.30;99.90;;;;;;5011870;28;20205;-48
2023/01/02 07:29:09;;;;;;;5.73;4.97;;;7.20;99.90;;;;;;5011977;28;20209;-49
2023/01/02 07:31:36;;;;;;;4.73;4.30;;;7.30;99.90;;;;;;5010001;28;20625;-49
2023/01/02 07:34:03;;;;;;;5.27;4.63;;;7.30;99.90;;;;;;5011740;28;20553;-48
2023/01/02 07:36:30;;;;;;;3.33;3.07;;;7.40;99.90;;;;;;5011865;28;20280;-48
2023/01/02 07:38:57;;;;;;;3.70;3.20;;;7.30;99.90;;;;;;5009634;28;20248;-47
2023/01/02 07:41:26;;;;;;;3.80;3.60;;;7.40;99.90;;;;;;5009408;28;20306;-48
2023/01/02 07:43:55;;;;;;;3.30;3.10;;;7.30;99.90;;;;;;5009327;28;20208;-49
2023/01/02 07:46:22;;;;;;;4.60;4.20;;;7.40;99.90;;;;;;5004942;28;20203;-49
2023/01/02 07:48:50;;;;;;;4.53;4.33;;;7.50;99.90;;;;;;4992368;28;20590;-48
2023/01/02 07:51:17;;;;;;;5.10;4.60;;;7.30;99.90;;;;;;5005470;28;20231;-49
2023/01/02 07:53:44;;;;;;;4.37;3.97;;;7.30;99.90;;;;;;5000487;28;20287;-48
2023/01/02 07:56:11;;;;;;;4.10;3.87;;;7.30;99.90;;;;;;5007720;28;20218;-48
2023/01/02 07:58:39;;;;;;;4.63;4.30;;;7.30;99.90;;;;;;5012444;28;20200;-48
2023/01/02 08:01:08;;;;;;;4.87;4.57;;;7.40;99.90;;;;;;5012374;28;20225;-49
2023/01/02 08:03:35;;;;;;;6.20;5.60;;;7.40;99.90;;;;;;5019503;28;20226;-49
2023/01/02 08:06:04;;;;;;;4.70;4.40;;;7.40;99.90;;;;;;5016967;28;20193;-48
2023/01/02 08:08:31;;;;;;;4.77;3.80;;;7.40;99.90;;;;;;5018067;28;20208;-48
2023/01/02 08:10:58;;;;;;;4.27;3.87;;;7.50;99.90;;;;;;5011030;28;20228;-48
2023/01/02 08:13:25;;;;;;;8.57;4.77;;;7.60;99.90;;;;;;5019911;28;20259;-49
2023/01/02 08:15:53;;;;;;;4.97;4.23;;;7.60;99.90;;;;;;5015828;28;20221;-49
2023/01/02 08:18:20;;;;;;;5.37;4.63;;;7.50;99.90;;;;;;5012186;28;20205;-48
2023/01/02 08:20:47;;;;;;;5.60;5.10;;;7.70;99.90;;;;;;5008284;28;20645;-48
2023/01/02 08:23:14;;;;;;;4.70;4.30;;;7.90;99.90;;;;;;5009012;28;20599;-48
2023/01/02 08:25:41;;;;;;;8.13;4.13;;;8.00;99.90;;;;;;5010761;28;20668;-48
2023/01/02 08:28:08;;;;;;;4.37;3.97;;;8.10;99.90;;;;;;5008359;28;20662;-48
2023/01/02 08:30:35;;;;;;;4.50;4.10;;;8.40;99.90;;;;;;5013010;28;20230;-48
2023/01/02 08:33:04;;;;;;;3.90;3.60;;;8.60;99.90;;;;;;5017153;28;20627;-49
2023/01/02 08:35:31;;;;;;;3.97;3.33;;;8.80;99.90;;;;;;5017123;28;20210;-49
2023/01/02 08:37:58;;;;;;;4.83;4.30;;;9.00;99.90;;;;;;5014052;28;20304;-48
2023/01/02 08:40:25;;;;;;;3.90;3.60;;;9.20;99.90;;;;;;5004393;28;20684;-48
2023/01/02 08:42:52;;;;;;;5.00;3.37;;;9.30;99.90;;;;;;5013949;28;20221;-48
2023/01/02 08:45:19;;;;;;;3.60;3.30;;;9.40;99.90;;;;;;5034686;28;20258;-49
2023/01/02 08:47:46;;;;;;;3.70;3.00;;;9.30;99.90;;;;;;5031553;28;20671;-48
2023/01/02 08:50:15;;;;;;;6.57;4.87;;;9.40;99.90;;;;;;5013774;28;20669;-49
2023/01/02 08:52:42;;;;;;;6.53;5.33;;;9.30;99.90;;;;;;5015749;28;20204;-48
2023/01/02 08:55:10;;;;;;;4.47;4.07;;;9.30;99.90;;;;;;5024953;28;20204;-49
2023/01/02 08:57:37;;;;;;;6.50;4.60;;;9.30;99.90;;;;;;5034177;28;20226;-48
2023/01/02 09:00:04;;;;;;;49.63;17.73;;;9.20;99.90;;;;;;5034364;28;20281;-48
2023/01/02 09:02:32;;;;;;;23.63;9.70;;;9.30;99.90;;;;;;5034263;28;20282;-48
2023/01/02 09:04:59;;;;;;;12.67;6.70;;;9.20;99.90;;;;;;5011672;28;20665;-49
2023/01/02 09:07:31;;;;;;;6.73;4.60;;;9.00;99.90;;;;;;5015601;28;20213;-48
2023/01/02 09:09:58;;;;;;;5.97;5.37;;;9.00;99.90;;;;;;5016947;28;20258;-48
2023/01/02 09:12:25;;;;;;;12.70;8.40;;;8.90;99.90;;;;;;5006667;28;20226;-49
2023/01/02 09:14:52;;;;;;;8.07;5.87;;;8.90;99.90;;;;;;5017059;28;20203;-49
2023/01/02 09:17:19;;;;;;;6.90;5.30;;;8.70;99.90;;;;;;5013815;28;20286;-48
2023/01/02 09:19:47;;;;;;;6.70;5.37;;;8.70;99.90;;;;;;5014006;28;20205;-48
2023/01/02 09:22:14;;;;;;;5.90;5.20;;;8.60;99.90;;;;;;5013054;28;20232;-48
2023/01/02 09:24:43;;;;;;;7.67;6.23;;;8.60;99.90;;;;;;5013975;28;20205;-48
2023/01/02 09:27:10;;;;;;;6.37;5.77;;;8.70;99.90;;;;;;5013642;28;20197;-48
2023/01/02 09:29:38;;;;;;;6.23;5.50;;;8.70;99.90;;;;;;5013799;28;20208;-48
2023/01/02 09:32:05;;;;;;;5.13;4.63;;;8.80;99.90;;;;;;5013779;28;20232;-49
2023/01/02 09:34:32;;;;;;;5.83;5.20;;;8.80;99.90;;;;;;5013872;28;20209;-49
2023/01/02 09:37:01;;;;;;;5.47;4.97;;;8.90;99.90;;;;;;5013642;28;20279;-48
2023/01/02 09:39:28;;;;;;;8.40;5.23;;;9.00;99.90;;;;;;5009190;28;20257;-48
2023/01/02 09:42:03;;;;;;;7.57;6.27;;;9.00;99.90;;;;;;5005337;28;20727;-48
2023/01/02 09:44:36;;;;;;;6.73;5.93;;;8.90;99.90;;;;;;5013581;28;20215;-48
2023/01/02 09:47:07;;;;;;;5.33;4.90;;;9.00;99.90;;;;;;5013656;28;20207;-48
2023/01/02 09:49:42;;;;;;;5.63;5.13;;;9.00;99.90;;;;;;5013389;28;20196;-49
2023/01/02 09:52:15;;;;;;;5.47;4.63;;;9.10;99.90;;;;;;5013570;28;20228;-48
2023/01/02 09:54:42;;;;;;;9.70;5.80;;;9.00;99.90;;;;;;5013640;28;20212;-48
2023/01/02 09:57:35;;;;;;;6.97;5.67;;;8.90;99.90;;;;;;5012546;28;20217;-48
2023/01/02 10:00:08;;;;;;;4.97;4.53;;;8.80;99.90;;;;;;5006614;28;20206;-47
2023/01/02 10:02:47;;;;;;;5.40;4.90;;;8.90;99.90;;;;;;5013130;28;20275;-49
2023/01/02 10:05:44;;;;;;;5.30;4.97;;;9.00;99.90;;;;;;5013282;28;20197;-48
2023/01/02 10:08:18;;;;;;;6.13;5.07;;;9.20;99.90;;;;;;5010596;28;20684;-48
2023/01/02 10:10:50;;;;;;;4.87;4.47;;;9.30;99.90;;;;;;5013108;28;20650;-50
2023/01/02 10:13:26;;;;;;;6.10;5.13;;;9.50;99.90;;;;;;5011659;28;20755;-48
2023/01/02 10:15:55;;;;;;;5.60;5.00;;;9.40;99.90;;;;;;5013054;28;20209;-48
2023/01/02 10:18:26;;;;;;;9.90;6.50;;;9.50;99.90;;;;;;5013013;28;20213;-48
2023/01/02 10:20:56;;;;;;;6.77;5.83;;;9.50;99.90;;;;;;5012747;28;20219;-48
2023/01/02 10:23:27;;;;;;;5.47;4.97;;;9.50;99.90;;;;;;5013137;28;20201;-48
2023/01/02 10:25:58;;;;;;;5.57;5.17;;;9.50;99.90;;;;;;5012957;28;20352;-48
2023/01/02 10:28:37;;;;;;;5.53;4.97;;;9.40;99.90;;;;;;5012815;28;20199;-48
2023/01/02 10:31:08;;;;;;;8.33;6.07;;;9.50;99.90;;;;;;5011568;28;20652;-49
2023/01/02 10:33:43;;;;;;;8.37;5.30;;;9.50;99.90;;;;;;5012988;28;20209;-48
2023/01/02 10:36:20;;;;;;;5.17;4.70;;;9.50;99.90;;;;;;5012824;28;20262;-49
2023/01/02 10:38:48;;;;;;;6.07;5.53;;;9.50;99.90;;;;;;5012624;28;20201;-48
2023/01/02 10:41:15;;;;;;;5.00;4.60;;;9.70;99.90;;;;;;5010478;28;20756;-49
2023/01/02 10:43:44;;;;;;;6.13;5.10;;;9.90;99.90;;;;;;5014986;28;20205;-48
2023/01/02 10:46:11;;;;;;;9.50;6.33;;;10.00;99.90;;;;;;5009011;28;20201;-48
2023/01/02 10:48:39;;;;;;;5.90;4.63;;;9.90;99.90;;;;;;5012421;28;20201;-48
2023/01/02 10:51:11;;;;;;;5.47;4.97;;;9.90;99.90;;;;;;5006694;28;20581;-48
2023/01/02 10:53:38;;;;;;;7.13;5.27;;;10.00;99.90;;;;;;5000088;28;20304;-48
2023/01/02 10:56:08;;;;;;;7.70;6.40;;;9.90;99.90;;;;;;5045092;22;20231;-52
2023/01/02 10:58:44;;;;;;;6.10;5.37;;;10.10;99.90;;;;;;5030597;28;20216;-51
2023/01/02 11:01:17;;;;;;;7.37;5.20;;;10.20;99.90;;;;;;5029064;28;20202;-50
2023/01/02 11:03:44;;;;;;;7.23;6.53;;;10.20;99.90;;;;;;5029558;28;20209;-50
2023/01/02 11:06:20;;;;;;;7.60;4.97;;;10.20;99.90;;;;;;5017869;28;20220;-51
2023/01/02 11:08:58;;;;;;;8.70;6.77;;;10.40;99.90;;;;;;5017887;28;20201;-52
2023/01/02 11:11:26;;;;;;;6.77;5.67;;;10.50;99.90;;;;;;5015406;28;20228;-52
2023/01/02 11:13:54;;;;;;;9.57;6.47;;;10.40;99.90;;;;;;5012219;28;20201;-52
2023/01/02 11:16:25;;;;;;;6.63;6.03;;;10.40;99.90;;;;;;5011851;28;20576;-51
2023/01/02 11:18:54;;;;;;;7.57;5.73;;;10.30;99.90;;;;;;5012496;28;20676;-51
2023/01/02 11:21:31;;;;;;;5.87;5.27;;;10.10;99.90;;;;;;5012380;28;20759;-52
2023/01/02 11:24:00;;;;;;;6.97;5.10;;;10.10;99.90;;;;;;5008312;28;20664;-52
2023/01/02 11:26:28;;;;;;;5.57;5.00;;;10.30;99.90;;;;;;5011879;28;20223;-52
2023/01/02 11:29:07;;;;;;;5.67;5.20;;;10.40;99.90;;;;;;5011809;28;20208;-51
2023/01/02 11:31:41;;;;;;;9.77;5.50;;;10.50;99.90;;;;;;5011948;28;20212;-52
2023/01/02 11:34:17;;;;;;;7.00;5.07;;;10.60;99.90;;;;;;5011092;28;20667;-51
2023/01/02 11:36:44;;;;;;;7.00;6.20;;;10.80;99.90;;;;;;5011701;28;20220;-51
2023/01/02 11:39:23;;;;;;;9.20;5.20;;;10.80;99.90;;;;;;5011137;28;20272;-51
2023/01/02 11:44:52;;;;;;;6.33;5.73;;;10.90;99.90;;;;;;5011702;28;20588;-52
2023/01/02 11:47:29;;;;;;;6.17;5.70;;;10.80;99.90;;;;;;5011256;28;20283;-53
2023/01/02 11:49:58;;;;;;;7.93;5.67;;;10.80;99.90;;;;;;5012837;28;20213;-52
2023/01/02 11:52:31;;;;;;;6.17;5.57;;;10.80;99.90;;;;;;5013818;28;20240;-51
2023/01/02 11:55:01;;;;;;;7.43;5.10;;;10.80;99.90;;;;;;5011649;28;20678;-51
2023/01/02 11:57:33;;;;;;;7.37;5.60;;;10.70;99.90;;;;;;5011809;28;20220;-51
2023/01/02 12:00:03;;;;;;;10.57;4.83;;;10.60;99.90;;;;;;5006963;28;20254;-52
2023/01/02 12:02:39;;;;;;;5.20;4.73;;;10.60;99.90;;;;;;5009257;28;20213;-52
2023/01/02 12:05:11;;;;;;;5.87;5.27;;;10.50;99.90;;;;;;5009777;28;20230;-53
2023/01/02 12:07:44;;;;;;;8.03;6.97;;;10.50;99.90;;;;;;5002788;28;20206;-52
2023/01/02 12:10:32;;;;;;;6.10;5.60;;;10.60;99.90;;;;;;5015360;28;20208;-52
2023/01/02 12:13:19;;;;;;;5.40;4.90;;;10.60;99.90;;;;;;4993552;28;20249;-51
2023/01/02 12:16:02;;;;;;;5.07;4.60;;;10.60;99.90;;;;;;5015215;28;20720;-51
2023/01/02 12:18:47;;;;;;;6.07;3.90;;;10.60;99.90;;;;;;5015293;28;20356;-52
2023/01/02 12:21:22;;;;;;;4.23;3.83;;;10.60;99.90;;;;;;5007589;28;20639;-52
2023/01/02 12:24:14;;;;;;;4.23;3.83;;;10.80;99.90;;;;;;5003421;28;20262;-52
2023/01/02 12:26:48;;;;;;;5.07;3.50;;;10.90;99.90;;;;;;4995654;28;20214;-52
2023/01/02 12:29:30;;;;;;;4.90;4.50;;;11.00;99.90;;;;;;4995106;28;20260;-53
2023/01/02 12:32:25;;;;;;;3.73;2.90;;;11.10;99.90;;;;;;4997936;28;20288;-52
2023/01/02 12:35:06;;;;;;;4.33;3.37;;;11.30;99.90;;;;;;4995939;28;20239;-52
2023/01/02 12:37:46;;;;;;;4.77;3.40;;;11.50;99.90;;;;;;4995584;28;20229;-49
2023/01/02 12:40:34;;;;;;;4.00;3.63;;;11.40;99.90;;;;;;4995283;28;20262;-52
2023/01/02 12:43:35;;;;;;;5.93;5.33;;;11.30;99.90;;;;;;4995888;28;20229;-52
2023/01/02 12:46:17;;;;;;;3.93;3.73;;;11.30;99.90;;;;;;5000163;28;20632;-53
2023/01/02 12:49:02;;;;;;;3.60;3.27;;;11.40;99.90;;;;;;5012963;28;20228;-51
2023/01/02 12:51:37;;;;;;;3.37;3.10;;;11.40;99.90;;;;;;5006120;28;20266;-51
2023/01/02 12:54:18;;;;;;;3.77;3.40;;;11.40;99.90;;;;;;4996006;28;20201;-51
2023/01/02 12:56:53;;;;;;;5.97;3.77;;;11.50;99.90;;;;;;4994855;28;20633;-52
2023/01/02 13:00:00;;;;;;;3.77;3.30;;;11.50;99.90;;;;;;4994925;28;20256;-50
2023/01/02 13:02:42;;;;;;;5.97;4.13;;;11.50;99.90;;;;;;4994026;28;20265;-51
2023/01/02 13:05:14;;;;;;;4.63;4.23;;;11.60;99.90;;;;;;4988396;28;20226;-52
2023/01/02 13:07:47;;;;;;;4.77;4.37;;;11.50;99.90;;;;;;4994775;28;20202;-52
2023/01/02 13:10:18;;;;;;;5.57;3.60;;;11.50;99.90;;;;;;4994601;28;20730;-52
2023/01/02 13:12:47;;;;;;;13.03;6.40;;;11.50;99.90;;;;;;4993161;28;20268;-52
2023/01/02 13:15:20;;;;;;;5.43;3.93;;;11.60;99.90;;;;;;4993556;28;20222;-52
2023/01/02 13:17:58;;;;;;;7.90;4.17;;;11.70;99.90;;;;;;4994684;28;20226;-51
2023/01/02 13:20:35;;;;;;;4.17;3.60;;;11.70;99.90;;;;;;4994387;28;20214;-51